PWSweather.com
Personal Weather Stations
Station Observations
PICKERING
North Yorkshire, PickeringGB

North YorkshirePickeringGB

Lat: 54.2494, Lon: -0.7725

Elevation: 192

Station Type: Oregon Scientific WMR100

http://www.yorkshirewalker.co.uk/weather/

High Low Average
Temperature 41.7°F5.4°C 33.8°F1.0°C 37.3°F2.9°C
Dew Point 37.4°F3.0°C 28.4°F-2.0°C 31.5°F-0.3°C
Winds 14.8 mph 23.8 kmh 0.8 mph 1.3 kmh 9.0 mph NW14.5 kmh NW
Wind Gusts 24.6 mph39.6 kmh 4.0 mph6.4 kmh 14.0 mph22.5 kmh
Humidity 87% 64% 78%
Pressure 28.97 in981.0 mb 28.44 in963.1 mb -
Precipitation 0.88 in22.4 mm - -
Hour Temp Dew Point Humidity Winds Wind Gusts Pressure Precip Precip Rate Daily Precip Total
12:00 AM 41.7°F5.4°C 37.4°F3.0°C 86% 0.8 mph NW1.3 kmh NW 4.0 mph6.4 kmh 28.59 in968.2 mb 0.24 in6.1 mm 0.00 in0.0 mm 0.24 in6.1 mm
12:05 AM 41.5°F5.3°C 37.4°F3.0°C 86% 2.5 mph NW4.0 kmh NW 7.4 mph11.9 kmh 28.59 in968.2 mb 0.24 in6.1 mm 0.00 in0.0 mm 0.24 in6.1 mm
12:10 AM 41.5°F5.3°C 37.4°F3.0°C 86% 3.8 mph NW6.1 kmh NW 7.4 mph11.9 kmh 28.62 in969.2 mb 0.24 in6.1 mm 0.00 in0.0 mm 0.24 in6.1 mm
12:15 AM 41.4°F5.2°C 37.4°F3.0°C 86% 3.2 mph NW5.1 kmh NW 5.6 mph9.0 kmh 28.62 in969.2 mb 0.36 in9.1 mm 1.44 in36.6 mm 0.13 in3.3 mm
12:20 AM 41.4°F5.2°C 37.4°F3.0°C 86% 2.6 mph NW4.2 kmh NW 5.6 mph9.0 kmh 28.62 in969.2 mb 0.36 in9.1 mm 0.00 in0.0 mm 0.13 in3.3 mm
12:25 AM 41.2°F5.1°C 37.4°F3.0°C 86% 3.9 mph NW6.3 kmh NW 9.8 mph15.8 kmh 28.62 in969.2 mb 0.36 in9.1 mm 0.00 in0.0 mm 0.13 in3.3 mm
12:30 AM 41.0°F5.0°C 37.4°F3.0°C 86% 5.1 mph NNW8.2 kmh NNW 9.8 mph15.8 kmh 28.62 in969.2 mb 0.24 in6.1 mm 0.00 in0.0 mm 0.13 in3.3 mm
12:35 AM 41.0°F5.0°C 37.4°F3.0°C 86% 5.5 mph N8.9 kmh N 13.0 mph20.9 kmh 28.62 in969.2 mb 0.24 in6.1 mm 0.00 in0.0 mm 0.13 in3.3 mm
12:40 AM 40.8°F4.9°C 37.4°F3.0°C 85% 5.5 mph N8.9 kmh N 13.0 mph20.9 kmh 28.59 in968.2 mb 0.24 in6.1 mm 0.00 in0.0 mm 0.13 in3.3 mm
12:45 AM 40.8°F4.9°C 37.4°F3.0°C 85% 4.7 mph NW7.6 kmh NW 9.8 mph15.8 kmh 28.59 in968.2 mb 0.24 in6.1 mm 0.00 in0.0 mm 0.13 in3.3 mm
12:50 AM 40.8°F4.9°C 37.4°F3.0°C 85% 5.3 mph NNW8.5 kmh NNW 10.5 mph16.9 kmh 28.59 in968.2 mb 0.24 in6.1 mm 0.00 in0.0 mm 0.13 in3.3 mm
12:55 AM 40.6°F4.8°C 37.4°F3.0°C 85% 6.2 mph NNW10.0 kmh NNW 10.5 mph16.9 kmh 28.62 in969.2 mb 0.13 in3.3 mm 0.00 in0.0 mm 0.13 in3.3 mm
01:00 AM 40.6°F4.8°C 37.4°F3.0°C 86% 5.6 mph N9.0 kmh N 7.8 mph12.6 kmh 28.62 in969.2 mb 0.13 in3.3 mm 0.00 in0.0 mm 0.13 in3.3 mm
01:05 AM 40.6°F4.8°C 37.4°F3.0°C 85% 6.9 mph N11.1 kmh N 11.9 mph19.2 kmh 28.62 in969.2 mb 0.13 in3.3 mm 0.00 in0.0 mm 0.13 in3.3 mm
01:10 AM 40.5°F4.7°C 37.4°F3.0°C 85% 7.8 mph N12.6 kmh N 11.9 mph19.2 kmh 28.62 in969.2 mb 0.13 in3.3 mm 0.00 in0.0 mm 0.13 in3.3 mm
01:15 AM 40.3°F4.6°C 37.4°F3.0°C 85% 8.0 mph NNE12.9 kmh NNE 13.4 mph21.6 kmh 28.62 in969.2 mb 0.00 in0.0 mm 0.00 in0.0 mm 0.13 in3.3 mm
01:20 AM 40.3°F4.6°C 37.4°F3.0°C 85% 7.9 mph N12.7 kmh N 13.4 mph21.6 kmh 28.62 in969.2 mb 0.00 in0.0 mm 0.00 in0.0 mm 0.13 in3.3 mm
01:25 AM 40.3°F4.6°C 37.4°F3.0°C 86% 7.4 mph NNW11.9 kmh NNW 10.3 mph16.6 kmh 28.62 in969.2 mb 0.00 in0.0 mm 0.00 in0.0 mm 0.13 in3.3 mm
01:30 AM 40.1°F4.5°C 37.4°F3.0°C 86% 7.8 mph NW12.6 kmh NW 11.0 mph17.7 kmh 28.62 in969.2 mb 0.00 in0.0 mm 0.00 in0.0 mm 0.13 in3.3 mm
01:35 AM 40.1°F4.5°C 37.4°F3.0°C 86% 9.0 mph NNW14.5 kmh NNW 12.8 mph20.6 kmh 28.62 in969.2 mb 0.00 in0.0 mm 0.00 in0.0 mm 0.13 in3.3 mm
01:40 AM 39.7°F4.3°C 35.6°F2.0°C 86% 10.8 mph NNW17.4 kmh NNW 21.9 mph35.2 kmh 28.62 in969.2 mb 0.00 in0.0 mm 0.00 in0.0 mm 0.13 in3.3 mm
01:45 AM 39.7°F4.3°C 35.6°F2.0°C 86% 10.4 mph N16.7 kmh N 21.9 mph35.2 kmh 28.62 in969.2 mb 0.00 in0.0 mm 0.00 in0.0 mm 0.13 in3.3 mm
01:50 AM 39.6°F4.2°C 37.4°F3.0°C 87% 8.8 mph N14.2 kmh N 15.2 mph24.5 kmh 28.62 in969.2 mb 0.00 in0.0 mm 0.00 in0.0 mm 0.13 in3.3 mm
01:55 AM 39.6°F4.2°C 37.4°F3.0°C 87% 10.6 mph N17.1 kmh N 19.7 mph31.7 kmh 28.62 in969.2 mb 0.00 in0.0 mm 0.00 in0.0 mm 0.13 in3.3 mm
02:00 AM 39.4°F4.1°C 35.6°F2.0°C 87% 11.6 mph NNW18.7 kmh NNW 19.7 mph31.7 kmh 28.62 in969.2 mb 0.00 in0.0 mm 0.00 in0.0 mm 0.13 in3.3 mm
02:05 AM 39.4°F4.1°C 35.6°F2.0°C 86% 11.4 mph N18.3 kmh N 15.4 mph24.8 kmh 28.62 in969.2 mb 0.00 in0.0 mm 0.00 in0.0 mm 0.13 in3.3 mm
02:10 AM 39.4°F4.1°C 35.6°F2.0°C 86% 10.1 mph N16.3 kmh N 14.3 mph23.0 kmh 28.62 in969.2 mb 0.00 in0.0 mm 0.00 in0.0 mm 0.13 in3.3 mm
02:15 AM 39.2°F4.0°C 35.6°F2.0°C 86% 9.9 mph N15.9 kmh N 15.4 mph24.8 kmh 28.62 in969.2 mb 0.00 in0.0 mm 0.00 in0.0 mm 0.13 in3.3 mm
02:20 AM 39.0°F3.9°C 35.6°F2.0°C 87% 12.4 mph N20.0 kmh N 17.0 mph27.4 kmh 28.62 in969.2 mb 0.00 in0.0 mm 0.00 in0.0 mm 0.13 in3.3 mm
02:25 AM 39.0°F3.9°C 35.6°F2.0°C 87% 10.7 mph N17.2 kmh N 17.0 mph27.4 kmh 28.62 in969.2 mb 0.00 in0.0 mm 0.00 in0.0 mm 0.13 in3.3 mm
02:30 AM 38.8°F3.8°C 35.6°F2.0°C 87% 9.1 mph NW14.6 kmh NW 14.8 mph23.8 kmh 28.62 in969.2 mb 0.00 in0.0 mm 0.00 in0.0 mm 0.13 in3.3 mm
02:35 AM 38.7°F3.7°C 35.6°F2.0°C 87% 8.7 mph NNW14.0 kmh NNW 14.8 mph23.8 kmh 28.62 in969.2 mb 0.11 in2.8 mm 1.32 in33.5 mm 0.24 in6.1 mm
02:40 AM 38.7°F3.7°C 35.6°F2.0°C 87% 8.1 mph N13.0 kmh N 13.4 mph21.6 kmh 28.65 in970.2 mb 0.11 in2.8 mm 0.00 in0.0 mm 0.24 in6.1 mm
02:45 AM 38.5°F3.6°C 35.6°F2.0°C 87% 7.7 mph N12.4 kmh N 12.8 mph20.6 kmh 28.65 in970.2 mb 0.11 in2.8 mm 0.00 in0.0 mm 0.24 in6.1 mm
02:50 AM 38.3°F3.5°C 35.6°F2.0°C 87% 7.4 mph N11.9 kmh N 16.1 mph25.9 kmh 28.65 in970.2 mb 0.11 in2.8 mm 0.00 in0.0 mm 0.24 in6.1 mm
02:55 AM 38.1°F3.4°C 35.6°F2.0°C 87% 9.5 mph NNW15.3 kmh NNW 16.1 mph25.9 kmh 28.44 in963.1 mb 0.11 in2.8 mm 0.00 in0.0 mm 0.24 in6.1 mm
03:00 AM 38.1°F3.4°C 35.6°F2.0°C 87% 9.4 mph NNW15.1 kmh NNW 14.8 mph23.8 kmh 28.44 in963.1 mb 0.11 in2.8 mm 0.00 in0.0 mm 0.24 in6.1 mm
03:05 AM 38.1°F3.4°C 33.8°F1.0°C 86% 8.8 mph N14.2 kmh N 17.2 mph27.7 kmh 28.44 in963.1 mb 0.11 in2.8 mm 0.00 in0.0 mm 0.24 in6.1 mm
03:10 AM 37.9°F3.3°C 33.8°F1.0°C 86% 9.3 mph N15.0 kmh N 17.2 mph27.7 kmh 28.65 in970.2 mb 0.11 in2.8 mm 0.00 in0.0 mm 0.24 in6.1 mm
03:15 AM 37.9°F3.3°C 33.8°F1.0°C 86% 8.5 mph NNW13.7 kmh NNW 13.0 mph20.9 kmh 28.65 in970.2 mb 0.11 in2.8 mm 0.00 in0.0 mm 0.24 in6.1 mm
03:20 AM 37.9°F3.3°C 33.8°F1.0°C 86% 7.5 mph NW12.1 kmh NW 10.1 mph16.3 kmh 28.65 in970.2 mb 0.11 in2.8 mm 0.00 in0.0 mm 0.24 in6.1 mm
03:25 AM 37.8°F3.2°C 33.8°F1.0°C 86% 10.2 mph NW16.4 kmh NW 17.0 mph27.4 kmh 28.65 in970.2 mb 0.11 in2.8 mm 0.00 in0.0 mm 0.24 in6.1 mm
03:30 AM 37.8°F3.2°C 33.8°F1.0°C 86% 11.3 mph NW18.2 kmh NW 17.0 mph27.4 kmh 28.65 in970.2 mb 0.11 in2.8 mm 0.00 in0.0 mm 0.24 in6.1 mm
03:35 AM 37.6°F3.1°C 33.8°F1.0°C 85% 9.1 mph NW14.6 kmh NW 13.2 mph21.2 kmh 28.65 in970.2 mb 0.00 in0.0 mm 0.00 in0.0 mm 0.24 in6.1 mm
03:40 AM 37.4°F3.0°C 33.8°F1.0°C 85% 8.3 mph NW13.4 kmh NW 12.5 mph20.1 kmh 28.68 in971.2 mb 0.00 in0.0 mm 0.00 in0.0 mm 0.24 in6.1 mm
03:45 AM 37.2°F2.9°C 33.8°F1.0°C 85% 7.3 mph NW11.7 kmh NW 12.5 mph20.1 kmh 28.68 in971.2 mb 0.00 in0.0 mm 0.00 in0.0 mm 0.24 in6.1 mm
03:50 AM 37.0°F2.8°C 33.8°F1.0°C 85% 7.1 mph NW11.4 kmh NW 11.0 mph17.7 kmh 28.68 in971.2 mb 0.00 in0.0 mm 0.00 in0.0 mm 0.24 in6.1 mm
03:55 AM 37.0°F2.8°C 33.8°F1.0°C 85% 6.7 mph NW10.8 kmh NW 11.0 mph17.7 kmh 28.68 in971.2 mb 0.00 in0.0 mm 0.00 in0.0 mm 0.24 in6.1 mm
04:00 AM 36.9°F2.7°C 33.8°F1.0°C 85% 6.9 mph NW11.1 kmh NW 14.3 mph23.0 kmh 28.68 in971.2 mb 0.00 in0.0 mm 0.00 in0.0 mm 0.24 in6.1 mm
04:05 AM 36.7°F2.6°C 33.8°F1.0°C 84% 6.8 mph NW10.9 kmh NW 14.3 mph23.0 kmh 28.68 in971.2 mb 0.00 in0.0 mm 0.00 in0.0 mm 0.24 in6.1 mm
04:10 AM 36.3°F2.4°C 32.0°F0.0°C 84% 8.1 mph NW13.0 kmh NW 12.5 mph20.1 kmh 28.68 in971.2 mb 0.00 in0.0 mm 0.00 in0.0 mm 0.24 in6.1 mm
04:15 AM 36.0°F2.2°C 32.0°F0.0°C 84% 7.1 mph NW11.4 kmh NW 12.5 mph20.1 kmh 28.68 in971.2 mb 0.00 in0.0 mm 0.00 in0.0 mm 0.24 in6.1 mm
04:20 AM 36.0°F2.2°C 32.0°F0.0°C 84% 5.9 mph NW9.5 kmh NW 8.1 mph13.0 kmh 28.68 in971.2 mb 0.00 in0.0 mm 0.00 in0.0 mm 0.24 in6.1 mm
04:25 AM 35.8°F2.1°C 32.0°F0.0°C 84% 7.3 mph NNW11.7 kmh NNW 12.3 mph19.8 kmh 28.68 in971.2 mb 0.00 in0.0 mm 0.00 in0.0 mm 0.24 in6.1 mm
04:30 AM 35.6°F2.0°C 32.0°F0.0°C 84% 6.5 mph NW10.5 kmh NW 12.3 mph19.8 kmh 28.68 in971.2 mb 0.00 in0.0 mm 0.00 in0.0 mm 0.24 in6.1 mm
04:35 AM 35.6°F2.0°C 32.0°F0.0°C 84% 6.3 mph WNW10.1 kmh WNW 10.1 mph16.3 kmh 28.68 in971.2 mb 0.00 in0.0 mm 0.00 in0.0 mm 0.24 in6.1 mm
04:40 AM 35.2°F1.8°C 30.2°F-1.0°C 83% 8.0 mph NW12.9 kmh NW 13.4 mph21.6 kmh 28.50 in965.1 mb 0.00 in0.0 mm 0.00 in0.0 mm 0.24 in6.1 mm
04:45 AM 35.1°F1.7°C 30.2°F-1.0°C 83% 8.8 mph NW14.2 kmh NW 13.4 mph21.6 kmh 28.50 in965.1 mb 0.00 in0.0 mm 0.00 in0.0 mm 0.24 in6.1 mm
04:50 AM 34.9°F1.6°C 30.2°F-1.0°C 83% 7.9 mph NW12.7 kmh NW 12.3 mph19.8 kmh 28.50 in965.1 mb 0.00 in0.0 mm 0.00 in0.0 mm 0.24 in6.1 mm
04:55 AM 34.7°F1.5°C 30.2°F-1.0°C 82% 7.6 mph NW12.2 kmh NW 11.0 mph17.7 kmh 28.71 in972.2 mb 0.00 in0.0 mm 0.00 in0.0 mm 0.24 in6.1 mm
05:00 AM 34.7°F1.5°C 30.2°F-1.0°C 82% 7.5 mph NW12.1 kmh NW 12.1 mph19.5 kmh 28.71 in972.2 mb 0.00 in0.0 mm 0.00 in0.0 mm 0.24 in6.1 mm
05:05 AM 34.5°F1.4°C 30.2°F-1.0°C 82% 7.1 mph NW11.4 kmh NW 12.1 mph19.5 kmh 28.71 in972.2 mb 0.00 in0.0 mm 0.00 in0.0 mm 0.24 in6.1 mm
05:10 AM 34.2°F1.2°C 30.2°F-1.0°C 82% 6.5 mph NW10.5 kmh NW 10.3 mph16.6 kmh 28.68 in971.2 mb 0.00 in0.0 mm 0.00 in0.0 mm 0.24 in6.1 mm
05:15 AM 34.0°F1.1°C 30.2°F-1.0°C 82% 5.9 mph NW9.5 kmh NW 11.9 mph19.2 kmh 28.68 in971.2 mb 0.00 in0.0 mm 0.00 in0.0 mm 0.24 in6.1 mm
05:20 AM 34.0°F1.1°C 30.2°F-1.0°C 82% 8.0 mph NW12.9 kmh NW 12.8 mph20.6 kmh 28.68 in971.2 mb 0.00 in0.0 mm 0.00 in0.0 mm 0.24 in6.1 mm
05:25 AM 33.8°F1.0°C 30.2°F-1.0°C 82% 8.3 mph NW13.4 kmh NW 12.8 mph20.6 kmh 28.71 in972.2 mb 0.00 in0.0 mm 0.00 in0.0 mm 0.24 in6.1 mm
05:30 AM 33.8°F1.0°C 28.4°F-2.0°C 81% 7.4 mph WNW11.9 kmh WNW 11.9 mph19.2 kmh 28.71 in972.2 mb 0.00 in0.0 mm 0.00 in0.0 mm 0.24 in6.1 mm
05:35 AM 33.8°F1.0°C 28.4°F-2.0°C 81% 7.5 mph WNW12.1 kmh WNW 11.9 mph19.2 kmh 28.71 in972.2 mb 0.00 in0.0 mm 0.00 in0.0 mm 0.24 in6.1 mm
05:40 AM 33.8°F1.0°C 28.4°F-2.0°C 81% 7.1 mph WNW11.4 kmh WNW 11.4 mph18.3 kmh 28.68 in971.2 mb 0.00 in0.0 mm 0.00 in0.0 mm 0.24 in6.1 mm
05:45 AM 33.8°F1.0°C 28.4°F-2.0°C 81% 7.7 mph NW12.4 kmh NW 11.4 mph18.3 kmh 28.68 in971.2 mb 0.00 in0.0 mm 0.00 in0.0 mm 0.24 in6.1 mm
05:50 AM 33.8°F1.0°C 28.4°F-2.0°C 81% 7.1 mph NW11.4 kmh NW 10.5 mph16.9 kmh 28.68 in971.2 mb 0.00 in0.0 mm 0.00 in0.0 mm 0.24 in6.1 mm
05:55 AM 34.2°F1.2°C 30.2°F-1.0°C 80% 7.4 mph WNW11.9 kmh WNW 13.6 mph21.9 kmh 28.68 in971.2 mb 0.00 in0.0 mm 0.00 in0.0 mm 0.24 in6.1 mm
06:00 AM 34.5°F1.4°C 30.2°F-1.0°C 80% 9.4 mph NW15.1 kmh NW 17.4 mph28.0 kmh 28.68 in971.2 mb 0.00 in0.0 mm 0.00 in0.0 mm 0.24 in6.1 mm
06:05 AM 34.5°F1.4°C 30.2°F-1.0°C 80% 9.1 mph NW14.6 kmh NW 17.4 mph28.0 kmh 28.68 in971.2 mb 0.00 in0.0 mm 0.00 in0.0 mm 0.24 in6.1 mm
06:10 AM 34.5°F1.4°C 28.4°F-2.0°C 79% 6.9 mph NW11.1 kmh NW 10.7 mph17.2 kmh 28.71 in972.2 mb 0.00 in0.0 mm 0.00 in0.0 mm 0.24 in6.1 mm
06:15 AM 34.7°F1.5°C 30.2°F-1.0°C 79% 7.0 mph WNW11.3 kmh WNW 11.9 mph19.2 kmh 28.71 in972.2 mb 0.00 in0.0 mm 0.00 in0.0 mm 0.24 in6.1 mm
06:20 AM 34.5°F1.4°C 28.4°F-2.0°C 79% 7.9 mph W12.7 kmh W 11.9 mph19.2 kmh 28.71 in972.2 mb 0.00 in0.0 mm 0.00 in0.0 mm 0.24 in6.1 mm
06:25 AM 34.7°F1.5°C 28.4°F-2.0°C 78% 7.1 mph NW11.4 kmh NW 10.3 mph16.6 kmh 28.71 in972.2 mb 0.00 in0.0 mm 0.00 in0.0 mm 0.24 in6.1 mm
06:30 AM 34.5°F1.4°C 28.4°F-2.0°C 78% 6.2 mph NW10.0 kmh NW 10.1 mph16.3 kmh 28.71 in972.2 mb 0.00 in0.0 mm 0.00 in0.0 mm 0.24 in6.1 mm
06:35 AM 34.5°F1.4°C 28.4°F-2.0°C 78% 6.3 mph NW10.1 kmh NW 8.9 mph14.3 kmh 28.71 in972.2 mb 0.00 in0.0 mm 0.00 in0.0 mm 0.24 in6.1 mm
06:40 AM 34.5°F1.4°C 28.4°F-2.0°C 78% 7.2 mph WNW11.6 kmh WNW 12.1 mph19.5 kmh 28.71 in972.2 mb 0.00 in0.0 mm 0.00 in0.0 mm 0.24 in6.1 mm
06:45 AM 34.7°F1.5°C 28.4°F-2.0°C 78% 8.5 mph W13.7 kmh W 13.2 mph21.2 kmh 28.71 in972.2 mb 0.00 in0.0 mm 0.00 in0.0 mm 0.24 in6.1 mm
06:50 AM 34.7°F1.5°C 28.4°F-2.0°C 77% 7.5 mph W12.1 kmh W 13.2 mph21.2 kmh 28.71 in972.2 mb 0.00 in0.0 mm 0.00 in0.0 mm 0.24 in6.1 mm
06:55 AM 34.7°F1.5°C 28.4°F-2.0°C 77% 7.7 mph W12.4 kmh W 11.9 mph19.2 kmh 28.71 in972.2 mb 0.00 in0.0 mm 0.00 in0.0 mm 0.24 in6.1 mm
07:00 AM 34.9°F1.6°C 28.4°F-2.0°C 77% 8.5 mph W13.7 kmh W 13.4 mph21.6 kmh 28.71 in972.2 mb 0.00 in0.0 mm 0.00 in0.0 mm 0.24 in6.1 mm
07:05 AM 34.9°F1.6°C 28.4°F-2.0°C 77% 8.6 mph W13.8 kmh W 13.4 mph21.6 kmh 28.71 in972.2 mb 0.00 in0.0 mm 0.00 in0.0 mm 0.24 in6.1 mm
07:10 AM 35.1°F1.7°C 28.4°F-2.0°C 76% 9.6 mph W15.4 kmh W 15.4 mph24.8 kmh 28.71 in972.2 mb 0.00 in0.0 mm 0.00 in0.0 mm 0.24 in6.1 mm
07:15 AM 35.1°F1.7°C 28.4°F-2.0°C 76% 8.9 mph W14.3 kmh W 15.4 mph24.8 kmh 28.71 in972.2 mb 0.00 in0.0 mm 0.00 in0.0 mm 0.24 in6.1 mm
07:20 AM 35.4°F1.9°C 28.4°F-2.0°C 76% 7.3 mph WNW11.7 kmh WNW 11.0 mph17.7 kmh 28.71 in972.2 mb 0.00 in0.0 mm 0.00 in0.0 mm 0.24 in6.1 mm
07:25 AM 35.4°F1.9°C 28.4°F-2.0°C 76% 6.6 mph WNW10.6 kmh WNW 8.5 mph13.7 kmh 28.71 in972.2 mb 0.00 in0.0 mm 0.00 in0.0 mm 0.24 in6.1 mm
07:30 AM 35.6°F2.0°C 30.2°F-1.0°C 76% 5.4 mph WNW8.7 kmh WNW 10.3 mph16.6 kmh 28.71 in972.2 mb 0.00 in0.0 mm 0.00 in0.0 mm 0.24 in6.1 mm
07:35 AM 35.6°F2.0°C 30.2°F-1.0°C 76% 5.1 mph NW8.2 kmh NW 10.3 mph16.6 kmh 28.71 in972.2 mb 0.00 in0.0 mm 0.00 in0.0 mm 0.24 in6.1 mm
07:40 AM 35.6°F2.0°C 30.2°F-1.0°C 76% 6.0 mph NW9.7 kmh NW 9.8 mph15.8 kmh 28.71 in972.2 mb 0.00 in0.0 mm 0.00 in0.0 mm 0.24 in6.1 mm
07:45 AM 35.6°F2.0°C 30.2°F-1.0°C 76% 5.7 mph WNW9.2 kmh WNW 9.8 mph15.8 kmh 28.71 in972.2 mb 0.00 in0.0 mm 0.00 in0.0 mm 0.24 in6.1 mm
07:50 AM 35.4°F1.9°C 28.4°F-2.0°C 76% 5.9 mph WNW9.5 kmh WNW 8.5 mph13.7 kmh 28.71 in972.2 mb 0.00 in0.0 mm 0.00 in0.0 mm 0.24 in6.1 mm
07:55 AM 35.6°F2.0°C 30.2°F-1.0°C 76% 6.3 mph WNW10.1 kmh WNW 7.8 mph12.6 kmh 28.74 in973.2 mb 0.00 in0.0 mm 0.00 in0.0 mm 0.24 in6.1 mm
08:00 AM 35.8°F2.1°C 30.2°F-1.0°C 76% 5.5 mph NW8.9 kmh NW 8.5 mph13.7 kmh 28.74 in973.2 mb 0.00 in0.0 mm 0.00 in0.0 mm 0.24 in6.1 mm
08:05 AM 35.8°F2.1°C 30.2°F-1.0°C 76% 5.2 mph NW8.4 kmh NW 8.7 mph14.0 kmh 28.74 in973.2 mb 0.00 in0.0 mm 0.00 in0.0 mm 0.24 in6.1 mm
08:10 AM 35.8°F2.1°C 30.2°F-1.0°C 76% 5.7 mph WNW9.2 kmh WNW 8.7 mph14.0 kmh 28.71 in972.2 mb 0.00 in0.0 mm 0.00 in0.0 mm 0.24 in6.1 mm
08:15 AM 35.6°F2.0°C 30.2°F-1.0°C 76% 6.8 mph WNW10.9 kmh WNW 8.7 mph14.0 kmh 28.71 in972.2 mb 0.00 in0.0 mm 0.00 in0.0 mm 0.24 in6.1 mm
08:20 AM 35.6°F2.0°C 30.2°F-1.0°C 76% 7.1 mph NW11.4 kmh NW 9.6 mph15.4 kmh 28.71 in972.2 mb 0.00 in0.0 mm 0.00 in0.0 mm 0.24 in6.1 mm
08:25 AM 35.4°F1.9°C 28.4°F-2.0°C 76% 6.4 mph NW10.3 kmh NW 9.6 mph15.4 kmh 28.74 in973.2 mb 0.00 in0.0 mm 0.00 in0.0 mm 0.24 in6.1 mm
08:30 AM 35.6°F2.0°C 30.2°F-1.0°C 76% 5.4 mph WNW8.7 kmh WNW 8.7 mph14.0 kmh 28.74 in973.2 mb 0.00 in0.0 mm 0.00 in0.0 mm 0.24 in6.1 mm
08:35 AM 35.6°F2.0°C 30.2°F-1.0°C 76% 6.0 mph W9.7 kmh W 11.0 mph17.7 kmh 28.74 in973.2 mb 0.00 in0.0 mm 0.00 in0.0 mm 0.24 in6.1 mm
08:40 AM 35.8°F2.1°C 30.2°F-1.0°C 76% 6.5 mph WNW10.5 kmh WNW 11.0 mph17.7 kmh 28.71 in972.2 mb 0.00 in0.0 mm 0.00 in0.0 mm 0.24 in6.1 mm
08:45 AM 36.0°F2.2°C 30.2°F-1.0°C 76% 8.6 mph WNW13.8 kmh WNW 14.5 mph23.3 kmh 28.71 in972.2 mb 0.00 in0.0 mm 0.00 in0.0 mm 0.24 in6.1 mm
08:50 AM 36.1°F2.3°C 30.2°F-1.0°C 75% 10.4 mph NW16.7 kmh NW 15.7 mph25.3 kmh 28.71 in972.2 mb 0.00 in0.0 mm 0.00 in0.0 mm 0.24 in6.1 mm
08:55 AM 36.1°F2.3°C 30.2°F-1.0°C 75% 8.6 mph WNW13.8 kmh WNW 15.7 mph25.3 kmh 28.74 in973.2 mb 0.00 in0.0 mm 0.00 in0.0 mm 0.24 in6.1 mm
09:00 AM 36.1°F2.3°C 30.2°F-1.0°C 75% 7.5 mph WNW12.1 kmh WNW 15.7 mph25.3 kmh 28.74 in973.2 mb 0.00 in0.0 mm 0.00 in0.0 mm 0.24 in6.1 mm
09:05 AM 36.3°F2.4°C 30.2°F-1.0°C 75% 8.1 mph W13.0 kmh W 12.8 mph20.6 kmh 28.74 in973.2 mb 0.00 in0.0 mm 0.00 in0.0 mm 0.24 in6.1 mm
09:10 AM 36.3°F2.4°C 30.2°F-1.0°C 75% 9.2 mph W14.8 kmh W 12.8 mph20.6 kmh 28.62 in969.2 mb 0.00 in0.0 mm 0.00 in0.0 mm 0.24 in6.1 mm
09:15 AM 36.5°F2.5°C 30.2°F-1.0°C 75% 8.5 mph WNW13.7 kmh WNW 12.3 mph19.8 kmh 28.62 in969.2 mb 0.00 in0.0 mm 0.00 in0.0 mm 0.24 in6.1 mm
09:20 AM 36.7°F2.6°C 30.2°F-1.0°C 74% 7.2 mph WNW11.6 kmh WNW 12.5 mph20.1 kmh 28.62 in969.2 mb 0.00 in0.0 mm 0.00 in0.0 mm 0.24 in6.1 mm
09:25 AM 36.9°F2.7°C 30.2°F-1.0°C 74% 8.4 mph WNW13.5 kmh WNW 14.5 mph23.3 kmh 28.65 in970.2 mb 0.00 in0.0 mm 0.00 in0.0 mm 0.24 in6.1 mm
09:30 AM 37.0°F2.8°C 30.2°F-1.0°C 73% 8.6 mph WNW13.8 kmh WNW 14.5 mph23.3 kmh 28.65 in970.2 mb 0.00 in0.0 mm 0.00 in0.0 mm 0.24 in6.1 mm
09:35 AM 37.2°F2.9°C 30.2°F-1.0°C 73% 9.0 mph W14.5 kmh W 13.2 mph21.2 kmh 28.65 in970.2 mb 0.00 in0.0 mm 0.00 in0.0 mm 0.24 in6.1 mm
09:40 AM 37.2°F2.9°C 30.2°F-1.0°C 72% 9.5 mph W15.3 kmh W 13.2 mph21.2 kmh 28.65 in970.2 mb 0.00 in0.0 mm 0.00 in0.0 mm 0.24 in6.1 mm
09:45 AM 37.6°F3.1°C 30.2°F-1.0°C 72% 9.4 mph WNW15.1 kmh WNW 12.8 mph20.6 kmh 28.65 in970.2 mb 0.00 in0.0 mm 0.00 in0.0 mm 0.24 in6.1 mm
09:50 AM 37.6°F3.1°C 30.2°F-1.0°C 71% 9.7 mph WNW15.6 kmh WNW 12.8 mph20.6 kmh 28.65 in970.2 mb 0.00 in0.0 mm 0.00 in0.0 mm 0.24 in6.1 mm
09:55 AM 37.8°F3.2°C 30.2°F-1.0°C 71% 9.6 mph NW15.4 kmh NW 15.4 mph24.8 kmh 28.65 in970.2 mb 0.00 in0.0 mm 0.00 in0.0 mm 0.24 in6.1 mm
10:00 AM 37.8°F3.2°C 30.2°F-1.0°C 71% 8.8 mph WNW14.2 kmh WNW 15.4 mph24.8 kmh 28.65 in970.2 mb 0.00 in0.0 mm 0.00 in0.0 mm 0.24 in6.1 mm
10:05 AM 37.9°F3.3°C 30.2°F-1.0°C 71% 9.9 mph WNW15.9 kmh WNW 15.4 mph24.8 kmh 28.65 in970.2 mb 0.00 in0.0 mm 0.00 in0.0 mm 0.24 in6.1 mm
10:10 AM 38.3°F3.5°C 30.2°F-1.0°C 70% 11.1 mph WNW17.9 kmh WNW 18.1 mph29.1 kmh 28.68 in971.2 mb 0.00 in0.0 mm 0.00 in0.0 mm 0.24 in6.1 mm
10:15 AM 38.3°F3.5°C 30.2°F-1.0°C 70% 10.8 mph WNW17.4 kmh WNW 18.1 mph29.1 kmh 28.68 in971.2 mb 0.00 in0.0 mm 0.00 in0.0 mm 0.24 in6.1 mm
10:20 AM 38.7°F3.7°C 30.2°F-1.0°C 69% 10.4 mph WNW16.7 kmh WNW 13.9 mph22.4 kmh 28.68 in971.2 mb 0.00 in0.0 mm 0.00 in0.0 mm 0.24 in6.1 mm
10:25 AM 39.2°F4.0°C 30.2°F-1.0°C 68% 10.9 mph W17.5 kmh W 17.0 mph27.4 kmh 28.68 in971.2 mb 0.00 in0.0 mm 0.00 in0.0 mm 0.24 in6.1 mm
10:30 AM 39.2°F4.0°C 30.2°F-1.0°C 68% 14.0 mph WNW22.5 kmh WNW 20.4 mph32.8 kmh 28.68 in971.2 mb 0.00 in0.0 mm 0.00 in0.0 mm 0.24 in6.1 mm
10:35 AM 39.0°F3.9°C 30.2°F-1.0°C 68% 14.7 mph WNW23.7 kmh WNW 20.4 mph32.8 kmh 28.68 in971.2 mb 0.00 in0.0 mm 0.00 in0.0 mm 0.24 in6.1 mm
10:40 AM 39.2°F4.0°C 30.2°F-1.0°C 68% 12.6 mph WNW20.3 kmh WNW 17.7 mph28.5 kmh 28.56 in967.2 mb 0.00 in0.0 mm 0.00 in0.0 mm 0.24 in6.1 mm
10:45 AM 39.4°F4.1°C 30.2°F-1.0°C 68% 11.2 mph WNW18.0 kmh WNW 17.7 mph28.5 kmh 28.56 in967.2 mb 0.00 in0.0 mm 0.00 in0.0 mm 0.24 in6.1 mm
10:50 AM 39.4°F4.1°C 30.2°F-1.0°C 68% 10.3 mph NW16.6 kmh NW 13.9 mph22.4 kmh 28.56 in967.2 mb 0.00 in0.0 mm 0.00 in0.0 mm 0.24 in6.1 mm
10:55 AM 39.9°F4.4°C 30.2°F-1.0°C 67% 10.5 mph NW16.9 kmh NW 16.6 mph26.7 kmh 28.68 in971.2 mb 0.06 in1.5 mm 0.72 in18.3 mm 0.29 in7.4 mm
11:00 AM 40.3°F4.6°C 30.2°F-1.0°C 67% 10.6 mph WNW17.1 kmh WNW 16.6 mph26.7 kmh 28.68 in971.2 mb 0.06 in1.5 mm 0.00 in0.0 mm 0.29 in7.4 mm
11:05 AM 40.3°F4.6°C 30.2°F-1.0°C 66% 10.2 mph WNW16.4 kmh WNW 15.4 mph24.8 kmh 28.68 in971.2 mb 0.06 in1.5 mm 0.00 in0.0 mm 0.29 in7.4 mm
11:10 AM 40.3°F4.6°C 30.2°F-1.0°C 65% 11.4 mph WNW18.3 kmh WNW 15.4 mph24.8 kmh 28.68 in971.2 mb 0.06 in1.5 mm 0.00 in0.0 mm 0.29 in7.4 mm
11:15 AM 40.5°F4.7°C 30.2°F-1.0°C 66% 11.8 mph W19.0 kmh W 15.4 mph24.8 kmh 28.68 in971.2 mb 0.06 in1.5 mm 0.00 in0.0 mm 0.29 in7.4 mm
11:20 AM 40.5°F4.7°C 30.2°F-1.0°C 66% 9.6 mph WNW15.4 kmh WNW 13.4 mph21.6 kmh 28.68 in971.2 mb 0.06 in1.5 mm 0.00 in0.0 mm 0.29 in7.4 mm
11:25 AM 40.8°F4.9°C 30.2°F-1.0°C 65% 9.1 mph WNW14.6 kmh WNW 16.3 mph26.2 kmh 28.68 in971.2 mb 0.06 in1.5 mm 0.00 in0.0 mm 0.29 in7.4 mm
11:30 AM 40.8°F4.9°C 30.2°F-1.0°C 65% 10.0 mph NW16.1 kmh NW 16.3 mph26.2 kmh 28.68 in971.2 mb 0.06 in1.5 mm 0.00 in0.0 mm 0.29 in7.4 mm
11:35 AM 40.6°F4.8°C 30.2°F-1.0°C 65% 9.2 mph WNW14.8 kmh WNW 14.8 mph23.8 kmh 28.68 in971.2 mb 0.06 in1.5 mm 0.00 in0.0 mm 0.29 in7.4 mm
11:40 AM 40.6°F4.8°C 30.2°F-1.0°C 65% 9.9 mph W15.9 kmh W 15.9 mph25.6 kmh 28.65 in970.2 mb 0.06 in1.5 mm 0.00 in0.0 mm 0.29 in7.4 mm
11:45 AM 40.6°F4.8°C 30.2°F-1.0°C 65% 10.1 mph W16.3 kmh W 15.9 mph25.6 kmh 28.65 in970.2 mb 0.06 in1.5 mm 0.00 in0.0 mm 0.29 in7.4 mm
11:50 AM 41.0°F5.0°C 30.2°F-1.0°C 65% 9.8 mph W15.8 kmh W 15.9 mph25.6 kmh 28.65 in970.2 mb 0.06 in1.5 mm 0.00 in0.0 mm 0.29 in7.4 mm
11:55 AM 40.8°F4.9°C 30.2°F-1.0°C 65% 10.2 mph W16.4 kmh W 15.2 mph24.5 kmh 28.65 in970.2 mb 0.00 in0.0 mm 0.00 in0.0 mm 0.29 in7.4 mm
12:00 PM 41.0°F5.0°C 30.2°F-1.0°C 64% 11.4 mph W18.3 kmh W 16.8 mph27.0 kmh 28.65 in970.2 mb 0.00 in0.0 mm 0.00 in0.0 mm 0.29 in7.4 mm
12:05 PM 40.8°F4.9°C 30.2°F-1.0°C 65% 11.0 mph W17.7 kmh W 16.8 mph27.0 kmh 28.65 in970.2 mb 0.00 in0.0 mm 0.00 in0.0 mm 0.29 in7.4 mm
12:10 PM 41.0°F5.0°C 30.2°F-1.0°C 65% 8.9 mph W14.3 kmh W 13.2 mph21.2 kmh 28.65 in970.2 mb 0.00 in0.0 mm 0.00 in0.0 mm 0.29 in7.4 mm
12:15 PM 41.0°F5.0°C 30.2°F-1.0°C 65% 8.7 mph W14.0 kmh W 13.2 mph21.2 kmh 28.65 in970.2 mb 0.00 in0.0 mm 0.00 in0.0 mm 0.29 in7.4 mm
12:20 PM 40.6°F4.8°C 30.2°F-1.0°C 65% 9.3 mph W15.0 kmh W 16.8 mph27.0 kmh 28.65 in970.2 mb 0.00 in0.0 mm 0.00 in0.0 mm 0.29 in7.4 mm
12:25 PM 40.6°F4.8°C 30.2°F-1.0°C 66% 10.9 mph WNW17.5 kmh WNW 17.0 mph27.4 kmh 28.62 in969.2 mb 0.00 in0.0 mm 0.00 in0.0 mm 0.29 in7.4 mm
12:30 PM 40.5°F4.7°C 30.2°F-1.0°C 66% 10.9 mph NW17.5 kmh NW 17.0 mph27.4 kmh 28.62 in969.2 mb 0.00 in0.0 mm 0.00 in0.0 mm 0.29 in7.4 mm
12:35 PM 40.6°F4.8°C 30.2°F-1.0°C 66% 9.3 mph WNW15.0 kmh WNW 15.4 mph24.8 kmh 28.62 in969.2 mb 0.00 in0.0 mm 0.00 in0.0 mm 0.29 in7.4 mm
12:40 PM 41.0°F5.0°C 30.2°F-1.0°C 65% 8.8 mph W14.2 kmh W 13.6 mph21.9 kmh 28.65 in970.2 mb 0.00 in0.0 mm 0.00 in0.0 mm 0.29 in7.4 mm
12:45 PM 41.2°F5.1°C 30.2°F-1.0°C 65% 9.3 mph W15.0 kmh W 13.6 mph21.9 kmh 28.65 in970.2 mb 0.00 in0.0 mm 0.00 in0.0 mm 0.29 in7.4 mm
12:50 PM 41.2°F5.1°C 30.2°F-1.0°C 64% 10.6 mph WNW17.1 kmh WNW 17.4 mph28.0 kmh 28.65 in970.2 mb 0.00 in0.0 mm 0.00 in0.0 mm 0.29 in7.4 mm
12:55 PM 41.2°F5.1°C 30.2°F-1.0°C 64% 11.1 mph NW17.9 kmh NW 17.4 mph28.0 kmh 28.65 in970.2 mb 0.00 in0.0 mm 0.00 in0.0 mm 0.29 in7.4 mm
01:00 PM 41.4°F5.2°C 30.2°F-1.0°C 64% 11.5 mph NW18.5 kmh NW 17.7 mph28.5 kmh 28.65 in970.2 mb 0.00 in0.0 mm 0.00 in0.0 mm 0.29 in7.4 mm
01:05 PM 41.4°F5.2°C 30.2°F-1.0°C 64% 11.6 mph NW18.7 kmh NW 17.7 mph28.5 kmh 28.65 in970.2 mb 0.00 in0.0 mm 0.00 in0.0 mm 0.29 in7.4 mm
01:10 PM 41.4°F5.2°C 30.2°F-1.0°C 64% 11.7 mph WNW18.8 kmh WNW 17.4 mph28.0 kmh 28.65 in970.2 mb 0.00 in0.0 mm 0.00 in0.0 mm 0.29 in7.4 mm
01:15 PM 41.2°F5.1°C 30.2°F-1.0°C 64% 11.0 mph W17.7 kmh W 17.4 mph28.0 kmh 28.65 in970.2 mb 0.00 in0.0 mm 0.00 in0.0 mm 0.29 in7.4 mm
01:20 PM 41.0°F5.0°C 30.2°F-1.0°C 65% 11.6 mph NW18.7 kmh NW 24.4 mph39.3 kmh 28.65 in970.2 mb 0.00 in0.0 mm 0.00 in0.0 mm 0.29 in7.4 mm
01:25 PM 40.8°F4.9°C 30.2°F-1.0°C 65% 13.1 mph NW21.1 kmh NW 24.4 mph39.3 kmh 28.68 in971.2 mb 0.00 in0.0 mm 0.00 in0.0 mm 0.29 in7.4 mm
01:30 PM 40.1°F4.5°C 30.2°F-1.0°C 67% 14.0 mph NW22.5 kmh NW 24.4 mph39.3 kmh 28.68 in971.2 mb 0.00 in0.0 mm 0.00 in0.0 mm 0.29 in7.4 mm
01:35 PM 39.9°F4.4°C 30.2°F-1.0°C 68% 11.9 mph WNW19.2 kmh WNW 17.4 mph28.0 kmh 28.68 in971.2 mb 0.00 in0.0 mm 0.00 in0.0 mm 0.29 in7.4 mm
01:40 PM 39.9°F4.4°C 30.2°F-1.0°C 69% 10.6 mph WNW17.1 kmh WNW 17.4 mph28.0 kmh 28.68 in971.2 mb 0.00 in0.0 mm 0.00 in0.0 mm 0.29 in7.4 mm
01:45 PM 39.6°F4.2°C 30.2°F-1.0°C 70% 10.4 mph NW16.7 kmh NW 19.7 mph31.7 kmh 28.68 in971.2 mb 0.00 in0.0 mm 0.00 in0.0 mm 0.29 in7.4 mm
01:50 PM 39.4°F4.1°C 30.2°F-1.0°C 71% 10.1 mph NW16.3 kmh NW 19.7 mph31.7 kmh 28.68 in971.2 mb 0.00 in0.0 mm 0.00 in0.0 mm 0.29 in7.4 mm
01:55 PM 39.4°F4.1°C 30.2°F-1.0°C 71% 10.1 mph W16.3 kmh W 17.4 mph28.0 kmh 28.68 in971.2 mb 0.00 in0.0 mm 0.00 in0.0 mm 0.29 in7.4 mm
02:00 PM 39.4°F4.1°C 30.2°F-1.0°C 71% 10.6 mph W17.1 kmh W 17.4 mph28.0 kmh 28.68 in971.2 mb 0.00 in0.0 mm 0.00 in0.0 mm 0.29 in7.4 mm
02:05 PM 39.6°F4.2°C 32.0°F0.0°C 71% 11.2 mph W18.0 kmh W 16.3 mph26.2 kmh 28.68 in971.2 mb 0.00 in0.0 mm 0.00 in0.0 mm 0.29 in7.4 mm
02:10 PM 39.4°F4.1°C 32.0°F0.0°C 72% 11.7 mph W18.8 kmh W 16.3 mph26.2 kmh 28.65 in970.2 mb 0.00 in0.0 mm 0.00 in0.0 mm 0.29 in7.4 mm
02:15 PM 39.2°F4.0°C 32.0°F0.0°C 72% 12.5 mph WNW20.1 kmh WNW 17.7 mph28.5 kmh 28.65 in970.2 mb 0.00 in0.0 mm 0.00 in0.0 mm 0.29 in7.4 mm
02:20 PM 38.8°F3.8°C 30.2°F-1.0°C 72% 11.2 mph WNW18.0 kmh WNW 17.7 mph28.5 kmh 28.65 in970.2 mb 0.00 in0.0 mm 0.00 in0.0 mm 0.29 in7.4 mm
02:25 PM 38.8°F3.8°C 30.2°F-1.0°C 73% 8.8 mph WNW14.2 kmh WNW 15.7 mph25.3 kmh 28.68 in971.2 mb 0.00 in0.0 mm 0.00 in0.0 mm 0.29 in7.4 mm
02:30 PM 38.7°F3.7°C 32.0°F0.0°C 74% 8.3 mph NW13.4 kmh NW 17.2 mph27.7 kmh 28.68 in971.2 mb 0.00 in0.0 mm 0.00 in0.0 mm 0.29 in7.4 mm
02:35 PM 38.3°F3.5°C 32.0°F0.0°C 74% 7.8 mph NW12.6 kmh NW 17.2 mph27.7 kmh 28.68 in971.2 mb 0.00 in0.0 mm 0.00 in0.0 mm 0.29 in7.4 mm
02:40 PM 38.3°F3.5°C 32.0°F0.0°C 75% 10.2 mph WNW16.4 kmh WNW 18.8 mph30.3 kmh 28.68 in971.2 mb 0.00 in0.0 mm 0.00 in0.0 mm 0.29 in7.4 mm
02:45 PM 38.3°F3.5°C 32.0°F0.0°C 75% 12.3 mph WNW19.8 kmh WNW 18.8 mph30.3 kmh 28.68 in971.2 mb 0.00 in0.0 mm 0.00 in0.0 mm 0.29 in7.4 mm
02:50 PM 38.3°F3.5°C 32.0°F0.0°C 75% 10.9 mph WNW17.5 kmh WNW 17.4 mph28.0 kmh 28.68 in971.2 mb 0.00 in0.0 mm 0.00 in0.0 mm 0.29 in7.4 mm
02:55 PM 38.5°F3.6°C 32.0°F0.0°C 75% 10.9 mph WNW17.5 kmh WNW 21.9 mph35.2 kmh 28.68 in971.2 mb 0.00 in0.0 mm 0.00 in0.0 mm 0.29 in7.4 mm
03:00 PM 38.3°F3.5°C 32.0°F0.0°C 76% 12.5 mph W20.1 kmh W 21.9 mph35.2 kmh 28.68 in971.2 mb 0.00 in0.0 mm 0.00 in0.0 mm 0.29 in7.4 mm
03:05 PM 38.3°F3.5°C 32.0°F0.0°C 76% 9.4 mph W15.1 kmh W 16.8 mph27.0 kmh 28.68 in971.2 mb 0.00 in0.0 mm 0.00 in0.0 mm 0.29 in7.4 mm
03:10 PM 38.5°F3.6°C 32.0°F0.0°C 76% 7.9 mph WNW12.7 kmh WNW 12.1 mph19.5 kmh 28.68 in971.2 mb 0.00 in0.0 mm 0.00 in0.0 mm 0.29 in7.4 mm
03:15 PM 38.5°F3.6°C 32.0°F0.0°C 76% 9.4 mph WNW15.1 kmh WNW 12.1 mph19.5 kmh 28.68 in971.2 mb 0.00 in0.0 mm 0.00 in0.0 mm 0.29 in7.4 mm
03:20 PM 38.3°F3.5°C 32.0°F0.0°C 76% 10.0 mph WNW16.1 kmh WNW 16.8 mph27.0 kmh 28.68 in971.2 mb 0.00 in0.0 mm 0.00 in0.0 mm 0.29 in7.4 mm
03:25 PM 38.3°F3.5°C 32.0°F0.0°C 76% 9.1 mph WNW14.6 kmh WNW 16.8 mph27.0 kmh 28.71 in972.2 mb 0.00 in0.0 mm 0.00 in0.0 mm 0.29 in7.4 mm
03:30 PM 38.1°F3.4°C 32.0°F0.0°C 76% 7.6 mph WNW12.2 kmh WNW 11.0 mph17.7 kmh 28.71 in972.2 mb 0.00 in0.0 mm 0.00 in0.0 mm 0.29 in7.4 mm
03:35 PM 37.8°F3.2°C 32.0°F0.0°C 77% 7.5 mph NW12.1 kmh NW 14.1 mph22.7 kmh 28.71 in972.2 mb 0.00 in0.0 mm 0.00 in0.0 mm 0.29 in7.4 mm
03:40 PM 37.8°F3.2°C 32.0°F0.0°C 77% 8.4 mph NNW13.5 kmh NNW 14.1 mph22.7 kmh 28.71 in972.2 mb 0.00 in0.0 mm 0.00 in0.0 mm 0.29 in7.4 mm
03:45 PM 37.8°F3.2°C 32.0°F0.0°C 77% 9.5 mph NW15.3 kmh NW 13.9 mph22.4 kmh 28.71 in972.2 mb 0.00 in0.0 mm 0.00 in0.0 mm 0.29 in7.4 mm
03:50 PM 37.8°F3.2°C 32.0°F0.0°C 77% 9.4 mph NW15.1 kmh NW 13.0 mph20.9 kmh 28.71 in972.2 mb 0.00 in0.0 mm 0.00 in0.0 mm 0.29 in7.4 mm
03:55 PM 37.8°F3.2°C 32.0°F0.0°C 77% 11.8 mph NW19.0 kmh NW 21.9 mph35.2 kmh 28.71 in972.2 mb 0.00 in0.0 mm 0.00 in0.0 mm 0.29 in7.4 mm
04:00 PM 37.8°F3.2°C 32.0°F0.0°C 77% 11.7 mph NW18.8 kmh NW 21.9 mph35.2 kmh 28.71 in972.2 mb 0.00 in0.0 mm 0.00 in0.0 mm 0.29 in7.4 mm
04:05 PM 37.8°F3.2°C 32.0°F0.0°C 77% 8.8 mph NW14.2 kmh NW 16.8 mph27.0 kmh 28.71 in972.2 mb 0.00 in0.0 mm 0.00 in0.0 mm 0.29 in7.4 mm
04:10 PM 37.8°F3.2°C 32.0°F0.0°C 77% 10.7 mph NW17.2 kmh NW 17.4 mph28.0 kmh 28.74 in973.2 mb 0.00 in0.0 mm 0.00 in0.0 mm 0.29 in7.4 mm
04:15 PM 37.9°F3.3°C 32.0°F0.0°C 77% 12.4 mph WNW20.0 kmh WNW 17.4 mph28.0 kmh 28.74 in973.2 mb 0.00 in0.0 mm 0.00 in0.0 mm 0.29 in7.4 mm
04:20 PM 37.8°F3.2°C 32.0°F0.0°C 77% 9.9 mph WNW15.9 kmh WNW 17.0 mph27.4 kmh 28.74 in973.2 mb 0.00 in0.0 mm 0.00 in0.0 mm 0.29 in7.4 mm
04:25 PM 37.8°F3.2°C 32.0°F0.0°C 77% 9.7 mph NW15.6 kmh NW 21.3 mph34.3 kmh 28.74 in973.2 mb 0.00 in0.0 mm 0.00 in0.0 mm 0.29 in7.4 mm
04:30 PM 37.8°F3.2°C 32.0°F0.0°C 77% 12.6 mph WNW20.3 kmh WNW 21.3 mph34.3 kmh 28.74 in973.2 mb 0.00 in0.0 mm 0.00 in0.0 mm 0.29 in7.4 mm
04:35 PM 37.6°F3.1°C 32.0°F0.0°C 77% 14.8 mph NW23.8 kmh NW 22.4 mph36.0 kmh 28.74 in973.2 mb 0.00 in0.0 mm 0.00 in0.0 mm 0.29 in7.4 mm
04:40 PM 37.4°F3.0°C 32.0°F0.0°C 77% 12.6 mph NW20.3 kmh NW 22.4 mph36.0 kmh 28.74 in973.2 mb 0.00 in0.0 mm 0.00 in0.0 mm 0.29 in7.4 mm
04:45 PM 37.4°F3.0°C 32.0°F0.0°C 78% 11.4 mph WNW18.3 kmh WNW 16.8 mph27.0 kmh 28.74 in973.2 mb 0.00 in0.0 mm 0.00 in0.0 mm 0.29 in7.4 mm
04:50 PM 37.2°F2.9°C 32.0°F0.0°C 78% 10.3 mph WNW16.6 kmh WNW 16.8 mph27.0 kmh 28.74 in973.2 mb 0.00 in0.0 mm 0.00 in0.0 mm 0.29 in7.4 mm
04:55 PM 37.2°F2.9°C 32.0°F0.0°C 78% 8.3 mph NW13.4 kmh NW 13.2 mph21.2 kmh 28.77 in974.3 mb 0.00 in0.0 mm 0.00 in0.0 mm 0.29 in7.4 mm
05:00 PM 37.2°F2.9°C 32.0°F0.0°C 78% 9.7 mph NW15.6 kmh NW 14.3 mph23.0 kmh 28.77 in974.3 mb 0.00 in0.0 mm 0.00 in0.0 mm 0.29 in7.4 mm
05:05 PM 37.2°F2.9°C 32.0°F0.0°C 78% 12.6 mph NW20.3 kmh NW 24.6 mph39.6 kmh 28.77 in974.3 mb 0.13 in3.3 mm 1.56 in39.6 mm 0.42 in10.7 mm
05:10 PM 37.0°F2.8°C 32.0°F0.0°C 78% 11.9 mph NW19.2 kmh NW 24.6 mph39.6 kmh 28.74 in973.2 mb 0.13 in3.3 mm 0.00 in0.0 mm 0.42 in10.7 mm
05:15 PM 37.2°F2.9°C 32.0°F0.0°C 78% 9.7 mph NW15.6 kmh NW 14.3 mph23.0 kmh 28.74 in973.2 mb 0.13 in3.3 mm 0.00 in0.0 mm 0.42 in10.7 mm
05:20 PM 37.2°F2.9°C 32.0°F0.0°C 78% 9.2 mph NNW14.8 kmh NNW 13.2 mph21.2 kmh 28.74 in973.2 mb 0.13 in3.3 mm 0.00 in0.0 mm 0.42 in10.7 mm
05:25 PM 37.4°F3.0°C 32.0°F0.0°C 78% 11.1 mph NW17.9 kmh NW 18.6 mph29.9 kmh 28.65 in970.2 mb 0.13 in3.3 mm 0.00 in0.0 mm 0.42 in10.7 mm
05:30 PM 37.6°F3.1°C 32.0°F0.0°C 77% 11.8 mph NW19.0 kmh NW 18.6 mph29.9 kmh 28.65 in970.2 mb 0.13 in3.3 mm 0.00 in0.0 mm 0.42 in10.7 mm
05:35 PM 37.6°F3.1°C 30.2°F-1.0°C 76% 11.9 mph NNW19.2 kmh NNW 20.4 mph32.8 kmh 28.65 in970.2 mb 0.13 in3.3 mm 0.00 in0.0 mm 0.42 in10.7 mm
05:40 PM 37.6°F3.1°C 30.2°F-1.0°C 76% 11.7 mph NW18.8 kmh NW 20.4 mph32.8 kmh 28.77 in974.3 mb 0.13 in3.3 mm 0.00 in0.0 mm 0.42 in10.7 mm
05:45 PM 37.6°F3.1°C 30.2°F-1.0°C 75% 10.8 mph WNW17.4 kmh WNW 18.1 mph29.1 kmh 28.77 in974.3 mb 0.13 in3.3 mm 0.00 in0.0 mm 0.42 in10.7 mm
05:50 PM 37.6°F3.1°C 30.2°F-1.0°C 76% 11.0 mph WNW17.7 kmh WNW 14.8 mph23.8 kmh 28.77 in974.3 mb 0.13 in3.3 mm 0.00 in0.0 mm 0.42 in10.7 mm
05:55 PM 37.2°F2.9°C 30.2°F-1.0°C 76% 11.9 mph NW19.2 kmh NW 17.2 mph27.7 kmh 28.77 in974.3 mb 0.13 in3.3 mm 0.00 in0.0 mm 0.42 in10.7 mm
06:00 PM 37.0°F2.8°C 32.0°F0.0°C 77% 10.9 mph NW17.5 kmh NW 17.2 mph27.7 kmh 28.77 in974.3 mb 0.13 in3.3 mm 0.00 in0.0 mm 0.42 in10.7 mm
06:05 PM 36.3°F2.4°C 30.2°F-1.0°C 77% 8.5 mph NW13.7 kmh NW 14.1 mph22.7 kmh 28.77 in974.3 mb 0.00 in0.0 mm 0.00 in0.0 mm 0.42 in10.7 mm
06:10 PM 36.3°F2.4°C 30.2°F-1.0°C 78% 10.0 mph NW16.1 kmh NW 14.8 mph23.8 kmh 28.80 in975.3 mb 0.00 in0.0 mm 0.00 in0.0 mm 0.42 in10.7 mm
06:15 PM 36.3°F2.4°C 30.2°F-1.0°C 79% 10.4 mph NW16.7 kmh NW 14.8 mph23.8 kmh 28.80 in975.3 mb 0.00 in0.0 mm 0.00 in0.0 mm 0.42 in10.7 mm
06:20 PM 36.3°F2.4°C 30.2°F-1.0°C 79% 8.8 mph WNW14.2 kmh WNW 13.2 mph21.2 kmh 28.80 in975.3 mb 0.00 in0.0 mm 0.00 in0.0 mm 0.42 in10.7 mm
06:25 PM 36.1°F2.3°C 30.2°F-1.0°C 79% 9.1 mph NW14.6 kmh NW 15.2 mph24.5 kmh 28.82 in976.0 mb 0.00 in0.0 mm 0.00 in0.0 mm 0.42 in10.7 mm
06:30 PM 36.1°F2.3°C 32.0°F0.0°C 80% 9.6 mph NW15.4 kmh NW 15.2 mph24.5 kmh 28.82 in976.0 mb 0.00 in0.0 mm 0.00 in0.0 mm 0.42 in10.7 mm
06:35 PM 36.0°F2.2°C 30.2°F-1.0°C 80% 8.3 mph NW13.4 kmh NW 14.5 mph23.3 kmh 28.82 in976.0 mb 0.00 in0.0 mm 0.00 in0.0 mm 0.42 in10.7 mm
06:40 PM 36.0°F2.2°C 30.2°F-1.0°C 80% 8.0 mph NW12.9 kmh NW 11.0 mph17.7 kmh 28.82 in976.0 mb 0.00 in0.0 mm 0.00 in0.0 mm 0.42 in10.7 mm
06:45 PM 36.0°F2.2°C 30.2°F-1.0°C 81% 6.9 mph NW11.1 kmh NW 10.7 mph17.2 kmh 28.82 in976.0 mb 0.00 in0.0 mm 0.00 in0.0 mm 0.42 in10.7 mm
06:50 PM 35.8°F2.1°C 30.2°F-1.0°C 81% 5.9 mph NW9.5 kmh NW 9.8 mph15.8 kmh 28.82 in976.0 mb 0.00 in0.0 mm 0.00 in0.0 mm 0.42 in10.7 mm
06:55 PM 35.8°F2.1°C 30.2°F-1.0°C 81% 6.6 mph NW10.6 kmh NW 10.5 mph16.9 kmh 28.82 in976.0 mb 0.00 in0.0 mm 0.00 in0.0 mm 0.42 in10.7 mm
07:00 PM 35.8°F2.1°C 30.2°F-1.0°C 81% 7.0 mph NW11.3 kmh NW 10.5 mph16.9 kmh 28.82 in976.0 mb 0.00 in0.0 mm 0.00 in0.0 mm 0.42 in10.7 mm
07:05 PM 35.6°F2.0°C 32.0°F0.0°C 82% 6.3 mph NW10.1 kmh NW 9.8 mph15.8 kmh 28.82 in976.0 mb 0.11 in2.8 mm 1.32 in33.5 mm 0.53 in13.5 mm
07:10 PM 35.6°F2.0°C 32.0°F0.0°C 82% 5.9 mph NW9.5 kmh NW 8.5 mph13.7 kmh 28.82 in976.0 mb 0.11 in2.8 mm 0.00 in0.0 mm 0.53 in13.5 mm
07:15 PM 35.6°F2.0°C 32.0°F0.0°C 82% 6.1 mph NW9.8 kmh NW 9.8 mph15.8 kmh 28.82 in976.0 mb 0.11 in2.8 mm 0.00 in0.0 mm 0.53 in13.5 mm
07:20 PM 35.6°F2.0°C 32.0°F0.0°C 82% 7.7 mph NW12.4 kmh NW 12.8 mph20.6 kmh 28.82 in976.0 mb 0.11 in2.8 mm 0.00 in0.0 mm 0.53 in13.5 mm
07:25 PM 35.4°F1.9°C 30.2°F-1.0°C 82% 7.4 mph NW11.9 kmh NW 12.8 mph20.6 kmh 28.85 in977.0 mb 0.23 in5.8 mm 1.44 in36.6 mm 0.64 in16.3 mm
07:30 PM 35.6°F2.0°C 32.0°F0.0°C 82% 6.7 mph NW10.8 kmh NW 12.8 mph20.6 kmh 28.85 in977.0 mb 0.23 in5.8 mm 0.00 in0.0 mm 0.64 in16.3 mm
07:35 PM 35.6°F2.0°C 32.0°F0.0°C 82% 6.9 mph NW11.1 kmh NW 9.8 mph15.8 kmh 28.85 in977.0 mb 0.23 in5.8 mm 0.00 in0.0 mm 0.64 in16.3 mm
07:40 PM 35.6°F2.0°C 32.0°F0.0°C 82% 6.6 mph NW10.6 kmh NW 11.9 mph19.2 kmh 28.85 in977.0 mb 0.23 in5.8 mm 0.00 in0.0 mm 0.64 in16.3 mm
07:45 PM 35.6°F2.0°C 32.0°F0.0°C 82% 8.4 mph NW13.5 kmh NW 15.4 mph24.8 kmh 28.85 in977.0 mb 0.23 in5.8 mm 0.00 in0.0 mm 0.64 in16.3 mm
07:50 PM 35.6°F2.0°C 32.0°F0.0°C 82% 9.3 mph NW15.0 kmh NW 15.4 mph24.8 kmh 28.85 in977.0 mb 0.23 in5.8 mm 0.00 in0.0 mm 0.64 in16.3 mm
07:55 PM 35.6°F2.0°C 32.0°F0.0°C 83% 9.8 mph NW15.8 kmh NW 15.2 mph24.5 kmh 28.85 in977.0 mb 0.23 in5.8 mm 0.00 in0.0 mm 0.64 in16.3 mm
08:00 PM 35.8°F2.1°C 32.0°F0.0°C 83% 9.0 mph NW14.5 kmh NW 12.5 mph20.1 kmh 28.85 in977.0 mb 0.23 in5.8 mm 0.00 in0.0 mm 0.64 in16.3 mm
08:05 PM 35.6°F2.0°C 32.0°F0.0°C 83% 7.4 mph NW11.9 kmh NW 12.5 mph20.1 kmh 28.85 in977.0 mb 0.11 in2.8 mm 0.00 in0.0 mm 0.64 in16.3 mm
08:10 PM 35.6°F2.0°C 32.0°F0.0°C 83% 6.5 mph NNW10.5 kmh NNW 12.1 mph19.5 kmh 28.88 in978.0 mb 0.11 in2.8 mm 0.00 in0.0 mm 0.64 in16.3 mm
08:15 PM 35.6°F2.0°C 32.0°F0.0°C 83% 5.8 mph NNW9.3 kmh NNW 12.1 mph19.5 kmh 28.88 in978.0 mb 0.11 in2.8 mm 0.00 in0.0 mm 0.64 in16.3 mm
08:20 PM 35.8°F2.1°C 32.0°F0.0°C 83% 5.2 mph NW8.4 kmh NW 8.5 mph13.7 kmh 28.88 in978.0 mb 0.11 in2.8 mm 0.00 in0.0 mm 0.64 in16.3 mm
08:25 PM 36.0°F2.2°C 32.0°F0.0°C 83% 5.6 mph NW9.0 kmh NW 8.7 mph14.0 kmh 28.88 in978.0 mb 0.00 in0.0 mm 0.00 in0.0 mm 0.64 in16.3 mm
08:30 PM 36.0°F2.2°C 32.0°F0.0°C 83% 7.5 mph NNW12.1 kmh NNW 10.7 mph17.2 kmh 28.88 in978.0 mb 0.00 in0.0 mm 0.00 in0.0 mm 0.64 in16.3 mm
08:35 PM 35.6°F2.0°C 32.0°F0.0°C 83% 8.6 mph NW13.8 kmh NW 13.2 mph21.2 kmh 28.88 in978.0 mb 0.00 in0.0 mm 0.00 in0.0 mm 0.64 in16.3 mm
08:40 PM 35.4°F1.9°C 32.0°F0.0°C 84% 6.9 mph NW11.1 kmh NW 13.2 mph21.2 kmh 28.88 in978.0 mb 0.00 in0.0 mm 0.00 in0.0 mm 0.64 in16.3 mm
08:45 PM 35.1°F1.7°C 30.2°F-1.0°C 84% 4.6 mph NW7.4 kmh NW 6.0 mph9.7 kmh 28.88 in978.0 mb 0.00 in0.0 mm 0.00 in0.0 mm 0.64 in16.3 mm
08:50 PM 34.9°F1.6°C 30.2°F-1.0°C 84% 5.6 mph NW9.0 kmh NW 8.1 mph13.0 kmh 28.88 in978.0 mb 0.00 in0.0 mm 0.00 in0.0 mm 0.64 in16.3 mm
08:55 PM 35.1°F1.7°C 30.2°F-1.0°C 84% 6.1 mph NW9.8 kmh NW 8.5 mph13.7 kmh 28.88 in978.0 mb 0.00 in0.0 mm 0.00 in0.0 mm 0.64 in16.3 mm
09:00 PM 34.9°F1.6°C 30.2°F-1.0°C 84% 5.5 mph NW8.9 kmh NW 8.5 mph13.7 kmh 28.88 in978.0 mb 0.00 in0.0 mm 0.00 in0.0 mm 0.64 in16.3 mm
09:05 PM 35.1°F1.7°C 30.2°F-1.0°C 84% 5.7 mph WNW9.2 kmh WNW 8.7 mph14.0 kmh 28.88 in978.0 mb 0.00 in0.0 mm 0.00 in0.0 mm 0.64 in16.3 mm
09:10 PM 35.1°F1.7°C 30.2°F-1.0°C 84% 6.9 mph WNW11.1 kmh WNW 10.7 mph17.2 kmh 28.77 in974.3 mb 0.00 in0.0 mm 0.00 in0.0 mm 0.64 in16.3 mm
09:15 PM 35.2°F1.8°C 30.2°F-1.0°C 84% 8.0 mph NW12.9 kmh NW 10.7 mph17.2 kmh 28.77 in974.3 mb 0.00 in0.0 mm 0.00 in0.0 mm 0.64 in16.3 mm
09:20 PM 35.2°F1.8°C 30.2°F-1.0°C 84% 7.8 mph WNW12.6 kmh WNW 11.9 mph19.2 kmh 28.77 in974.3 mb 0.00 in0.0 mm 0.00 in0.0 mm 0.64 in16.3 mm
09:25 PM 35.2°F1.8°C 30.2°F-1.0°C 84% 7.4 mph WNW11.9 kmh WNW 11.9 mph19.2 kmh 28.88 in978.0 mb 0.13 in3.3 mm 1.56 in39.6 mm 0.77 in19.6 mm
09:30 PM 35.2°F1.8°C 30.2°F-1.0°C 84% 6.1 mph NW9.8 kmh NW 12.3 mph19.8 kmh 28.88 in978.0 mb 0.13 in3.3 mm 0.00 in0.0 mm 0.77 in19.6 mm
09:35 PM 35.2°F1.8°C 30.2°F-1.0°C 84% 7.4 mph NW11.9 kmh NW 12.3 mph19.8 kmh 28.88 in978.0 mb 0.13 in3.3 mm 0.00 in0.0 mm 0.77 in19.6 mm
09:40 PM 35.2°F1.8°C 30.2°F-1.0°C 84% 9.1 mph NW14.6 kmh NW 13.0 mph20.9 kmh 28.91 in979.0 mb 0.13 in3.3 mm 0.00 in0.0 mm 0.77 in19.6 mm
09:45 PM 35.2°F1.8°C 30.2°F-1.0°C 84% 9.8 mph NNW15.8 kmh NNW 13.0 mph20.9 kmh 28.91 in979.0 mb 0.13 in3.3 mm 0.00 in0.0 mm 0.77 in19.6 mm
09:50 PM 35.2°F1.8°C 30.2°F-1.0°C 84% 7.8 mph NW12.6 kmh NW 12.5 mph20.1 kmh 28.91 in979.0 mb 0.13 in3.3 mm 0.00 in0.0 mm 0.77 in19.6 mm
09:55 PM 35.2°F1.8°C 30.2°F-1.0°C 84% 8.3 mph NW13.4 kmh NW 12.5 mph20.1 kmh 28.91 in979.0 mb 0.13 in3.3 mm 0.00 in0.0 mm 0.77 in19.6 mm
10:00 PM 35.2°F1.8°C 30.2°F-1.0°C 84% 9.4 mph NW15.1 kmh NW 14.8 mph23.8 kmh 28.91 in979.0 mb 0.13 in3.3 mm 0.00 in0.0 mm 0.77 in19.6 mm
10:05 PM 35.2°F1.8°C 30.2°F-1.0°C 84% 7.3 mph NW11.7 kmh NW 14.8 mph23.8 kmh 28.91 in979.0 mb 0.13 in3.3 mm 0.00 in0.0 mm 0.77 in19.6 mm
10:10 PM 35.2°F1.8°C 30.2°F-1.0°C 84% 6.9 mph NW11.1 kmh NW 10.1 mph16.3 kmh 28.94 in980.0 mb 0.13 in3.3 mm 0.00 in0.0 mm 0.77 in19.6 mm
10:15 PM 35.2°F1.8°C 30.2°F-1.0°C 84% 8.5 mph NW13.7 kmh NW 12.1 mph19.5 kmh 28.94 in980.0 mb 0.13 in3.3 mm 0.00 in0.0 mm 0.77 in19.6 mm
10:20 PM 35.2°F1.8°C 30.2°F-1.0°C 84% 8.9 mph NW14.3 kmh NW 12.1 mph19.5 kmh 28.94 in980.0 mb 0.00 in0.0 mm 0.00 in0.0 mm 0.77 in19.6 mm
10:25 PM 35.2°F1.8°C 30.2°F-1.0°C 84% 9.6 mph NW15.4 kmh NW 16.1 mph25.9 kmh 28.77 in974.3 mb 0.00 in0.0 mm 0.00 in0.0 mm 0.77 in19.6 mm
10:30 PM 35.2°F1.8°C 30.2°F-1.0°C 84% 9.9 mph NW15.9 kmh NW 16.1 mph25.9 kmh 28.77 in974.3 mb 0.00 in0.0 mm 0.00 in0.0 mm 0.77 in19.6 mm
10:35 PM 35.2°F1.8°C 32.0°F0.0°C 85% 8.8 mph NW14.2 kmh NW 14.8 mph23.8 kmh 28.77 in974.3 mb 0.00 in0.0 mm 0.00 in0.0 mm 0.77 in19.6 mm
10:40 PM 35.1°F1.7°C 32.0°F0.0°C 85% 9.8 mph NNW15.8 kmh NNW 17.2 mph27.7 kmh 28.94 in980.0 mb 0.00 in0.0 mm 0.00 in0.0 mm 0.77 in19.6 mm
10:45 PM 35.1°F1.7°C 32.0°F0.0°C 85% 9.8 mph NW15.8 kmh NW 17.2 mph27.7 kmh 28.94 in980.0 mb 0.00 in0.0 mm 0.00 in0.0 mm 0.77 in19.6 mm
10:50 PM 34.9°F1.6°C 32.0°F0.0°C 85% 8.0 mph NW12.9 kmh NW 13.2 mph21.2 kmh 28.94 in980.0 mb 0.00 in0.0 mm 0.00 in0.0 mm 0.77 in19.6 mm
10:55 PM 34.5°F1.4°C 30.2°F-1.0°C 85% 7.2 mph NW11.6 kmh NW 9.8 mph15.8 kmh 28.97 in981.0 mb 0.00 in0.0 mm 0.00 in0.0 mm 0.77 in19.6 mm
11:00 PM 34.5°F1.4°C 30.2°F-1.0°C 85% 8.3 mph NW13.4 kmh NW 15.4 mph24.8 kmh 28.97 in981.0 mb 0.00 in0.0 mm 0.00 in0.0 mm 0.77 in19.6 mm
11:05 PM 34.5°F1.4°C 30.2°F-1.0°C 85% 9.6 mph NW15.4 kmh NW 15.4 mph24.8 kmh 28.97 in981.0 mb 0.00 in0.0 mm 0.00 in0.0 mm 0.77 in19.6 mm
11:10 PM 34.3°F1.3°C 30.2°F-1.0°C 85% 8.6 mph NW13.8 kmh NW 12.3 mph19.8 kmh 28.97 in981.0 mb 0.00 in0.0 mm 0.00 in0.0 mm 0.77 in19.6 mm
11:15 PM 34.5°F1.4°C 30.2°F-1.0°C 85% 7.6 mph NW12.2 kmh NW 13.6 mph21.9 kmh 28.97 in981.0 mb 0.00 in0.0 mm 0.00 in0.0 mm 0.77 in19.6 mm
11:20 PM 34.5°F1.4°C 30.2°F-1.0°C 85% 8.1 mph NW13.0 kmh NW 13.6 mph21.9 kmh 28.97 in981.0 mb 0.00 in0.0 mm 0.00 in0.0 mm 0.77 in19.6 mm
11:25 PM 34.5°F1.4°C 30.2°F-1.0°C 85% 7.5 mph NW12.1 kmh NW 11.0 mph17.7 kmh 28.97 in981.0 mb 0.00 in0.0 mm 0.00 in0.0 mm 0.77 in19.6 mm
11:30 PM 34.5°F1.4°C 30.2°F-1.0°C 85% 6.4 mph NW10.3 kmh NW 10.7 mph17.2 kmh 28.97 in981.0 mb 0.00 in0.0 mm 0.00 in0.0 mm 0.77 in19.6 mm
11:35 PM 34.5°F1.4°C 30.2°F-1.0°C 85% 8.3 mph NW13.4 kmh NW 14.8 mph23.8 kmh 28.97 in981.0 mb 0.00 in0.0 mm 0.00 in0.0 mm 0.77 in19.6 mm
11:40 PM 34.3°F1.3°C 30.2°F-1.0°C 85% 9.4 mph WNW15.1 kmh WNW 14.8 mph23.8 kmh 28.80 in975.3 mb 0.00 in0.0 mm 0.00 in0.0 mm 0.77 in19.6 mm
11:45 PM 34.3°F1.3°C 30.2°F-1.0°C 85% 8.5 mph NW13.7 kmh NW 13.9 mph22.4 kmh 28.80 in975.3 mb 0.11 in2.8 mm 1.32 in33.5 mm 0.88 in22.4 mm
11:50 PM 34.3°F1.3°C 30.2°F-1.0°C 85% 8.9 mph NW14.3 kmh NW 12.8 mph20.6 kmh 28.80 in975.3 mb 0.11 in2.8 mm 0.00 in0.0 mm 0.88 in22.4 mm
11:55 PM 34.3°F1.3°C 30.2°F-1.0°C 85% 8.3 mph NW13.4 kmh NW 12.8 mph20.6 kmh 28.97 in981.0 mb 0.11 in2.8 mm 0.00 in0.0 mm 0.88 in22.4 mm